createdAt,value
2023-05-02T00:02:43.399Z,3.22
2023-05-02T00:07:45.112Z,2.47
2023-05-02T00:12:46.508Z,1.75
2023-05-02T00:17:48.121Z,1.80
2023-05-02T00:22:49.665Z,1.90
2023-05-02T00:27:51.364Z,2.58
2023-05-02T00:32:54.337Z,2.17
2023-05-02T00:37:55.864Z,2.67
2023-05-02T00:42:57.329Z,2.50
2023-05-02T00:47:58.763Z,1.98
2023-05-02T00:53:00.571Z,1.98
2023-05-02T00:58:03.579Z,1.67
2023-05-02T01:03:12.857Z,1.60
2023-05-02T01:08:20.286Z,1.88
2023-05-02T01:13:24.319Z,1.30
2023-05-02T01:18:28.386Z,2.00
2023-05-02T01:23:48.468Z,2.15
2023-05-02T01:33:51.839Z,1.58
2023-05-02T01:38:54.463Z,1.42
2023-05-02T01:43:57.415Z,2.03
2023-05-02T01:48:59.418Z,2.03
2023-05-02T01:54:02.353Z,1.60
2023-05-02T01:59:08.866Z,1.40
2023-05-02T02:04:11.435Z,2.10
2023-05-02T02:09:12.967Z,1.65
2023-05-02T02:14:19.251Z,2.08
2023-05-02T02:19:21.140Z,2.30
2023-05-02T02:24:22.853Z,1.80
2023-05-02T02:29:24.440Z,2.05
2023-05-02T02:34:25.862Z,2.03
2023-05-02T02:39:47.978Z,1.95
2023-05-02T02:45:00.877Z,1.80
2023-05-02T02:50:15.997Z,1.77
2023-05-02T02:55:23.558Z,2.08
2023-05-02T03:00:26.023Z,3.15
2023-05-02T03:05:27.481Z,2.70
2023-05-02T03:10:28.873Z,2.72
2023-05-02T03:15:39.420Z,2.88
2023-05-02T03:20:41.971Z,3.15
2023-05-02T03:25:43.616Z,2.90
2023-05-02T03:30:44.969Z,2.40
2023-05-02T03:35:46.342Z,2.67
2023-05-02T03:40:47.863Z,2.30
2023-05-02T03:45:49.274Z,2.63
2023-05-02T03:50:50.672Z,2.63
2023-05-02T03:55:52.529Z,2.50
2023-05-02T04:00:54.954Z,2.20
2023-05-02T04:05:56.366Z,1.88
2023-05-02T04:10:57.746Z,2.35
2023-05-02T04:15:59.087Z,1.75
2023-05-02T04:21:00.537Z,2.25
2023-05-02T04:26:01.934Z,1.80
2023-05-02T04:31:04.279Z,1.90
2023-05-02T04:36:06.014Z,1.80
2023-05-02T04:41:08.822Z,1.60
2023-05-02T04:46:11.387Z,1.55
2023-05-02T04:51:14.851Z,2.42
2023-05-02T04:56:17.836Z,2.05
2023-05-02T05:01:19.357Z,2.00
2023-05-02T05:06:21.021Z,2.10
2023-05-02T05:11:22.669Z,2.20
2023-05-02T05:16:24.220Z,2.10
2023-05-02T05:21:25.683Z,1.65
2023-05-02T05:26:27.186Z,1.50
2023-05-02T05:31:28.745Z,2.08
2023-05-02T05:36:32.738Z,1.83
2023-05-02T05:41:35.201Z,1.80
2023-05-02T05:46:36.746Z,2.00
2023-05-02T05:51:38.189Z,2.05
2023-05-02T05:56:39.584Z,1.85
2023-05-02T06:01:41.209Z,1.70
2023-05-02T06:06:42.829Z,2.40
2023-05-02T06:11:44.293Z,1.70
2023-05-02T06:16:45.764Z,1.60
2023-05-02T06:21:47.588Z,1.58
2023-05-02T06:26:49.020Z,1.80
2023-05-02T06:31:51.423Z,1.88
2023-05-02T06:36:56.810Z,1.80
2023-05-02T06:41:58.476Z,1.90
2023-05-02T06:47:00.179Z,1.88
2023-05-02T06:52:01.665Z,1.67
2023-05-02T06:57:03.113Z,1.80
2023-05-02T07:02:05.342Z,1.98
2023-05-02T07:07:07.162Z,1.80
2023-05-02T07:12:08.642Z,1.90
2023-05-02T07:17:10.306Z,1.48
2023-05-02T07:22:11.967Z,1.90
2023-05-02T07:27:13.443Z,2.47
2023-05-02T07:32:14.969Z,2.17
2023-05-02T07:37:16.476Z,2.10
2023-05-02T07:42:17.907Z,2.00
2023-05-02T07:47:19.338Z,1.77
2023-05-02T07:52:20.910Z,1.90
2023-05-02T07:57:22.338Z,2.33
2023-05-02T08:02:24.091Z,2.25
2023-05-02T08:07:26.127Z,2.33
2023-05-02T08:12:27.767Z,2.10
2023-05-02T08:17:29.354Z,2.33
2023-05-02T08:22:31.469Z,2.42
2023-05-02T08:27:35.423Z,2.55
2023-05-02T08:32:37.265Z,1.80
2023-05-02T08:37:39.525Z,2.50
2023-05-02T08:42:44.894Z,2.10
2023-05-02T08:47:47.211Z,2.30
2023-05-02T08:52:49.547Z,2.50
2023-05-02T08:57:50.963Z,2.60
2023-05-02T09:02:53.170Z,2.30
2023-05-02T09:07:54.663Z,3.20
2023-05-02T09:12:56.110Z,2.45
2023-05-02T09:17:57.546Z,2.40
2023-05-02T09:22:58.992Z,2.30
2023-05-02T09:28:01.901Z,2.60
2023-05-02T09:33:03.556Z,2.25
2023-05-02T09:38:16.830Z,2.47
2023-05-02T09:43:19.077Z,2.42
2023-05-02T09:48:20.501Z,2.22
2023-05-02T09:53:21.931Z,2.40
2023-05-02T09:58:24.556Z,2.00
2023-05-02T10:03:27.689Z,2.40
2023-05-02T10:08:29.101Z,2.13
2023-05-02T10:13:32.674Z,2.08
2023-05-02T10:18:43.225Z,2.40
2023-05-02T10:23:44.866Z,2.00
2023-05-02T10:28:46.419Z,2.10
2023-05-02T10:33:50.704Z,2.20
2023-05-02T10:38:53.217Z,2.00
2023-05-02T10:43:54.794Z,1.83
2023-05-02T10:49:03.713Z,1.95
2023-05-02T10:54:18.154Z,1.50
2023-05-02T10:59:36.346Z,1.60
2023-05-02T11:04:56.548Z,1.88
2023-05-02T11:10:18.245Z,1.75
2023-05-02T11:15:28.909Z,1.65
2023-05-02T11:20:31.454Z,1.80
2023-05-02T11:25:34.474Z,1.52
2023-05-02T11:30:39.931Z,1.70
2023-05-02T11:35:42.273Z,1.50
2023-05-02T11:40:53.974Z,1.90
2023-05-02T11:45:56.533Z,1.85
2023-05-02T11:51:02.272Z,1.58
2023-05-02T11:56:04.638Z,1.55
2023-05-02T12:01:15.976Z,1.70
2023-05-02T12:06:21.052Z,1.65
2023-05-02T12:11:23.441Z,1.60
2023-05-02T12:16:24.999Z,1.25
2023-05-02T12:21:35.851Z,1.45
2023-05-02T12:26:38.609Z,1.70
2023-05-02T12:31:40.250Z,1.48
2023-05-02T12:36:45.426Z,1.40
2023-05-02T12:41:47.309Z,1.50
2023-05-02T12:46:59.693Z,1.35
2023-05-02T12:52:01.331Z,1.35
2023-05-02T12:57:03.060Z,1.88
2023-05-02T13:02:04.693Z,1.30
2023-05-02T13:07:06.347Z,1.50
2023-05-02T13:12:08.035Z,1.60
2023-05-02T13:17:09.958Z,1.40
2023-05-02T13:22:11.785Z,1.55
2023-05-02T13:27:13.207Z,1.52
2023-05-02T13:32:14.613Z,1.30
2023-05-02T13:37:16.248Z,1.92
2023-05-02T13:42:17.642Z,1.42
2023-05-02T13:47:19.124Z,1.40
2023-05-02T13:52:20.642Z,1.30
2023-05-02T13:57:22.077Z,1.77
2023-05-02T14:02:23.719Z,1.50
2023-05-02T14:07:25.214Z,1.60
2023-05-02T14:12:26.842Z,1.40
2023-05-02T14:17:28.274Z,1.40
2023-05-02T14:22:29.808Z,1.48
2023-05-02T14:27:31.253Z,1.48
2023-05-02T14:32:32.748Z,1.50
2023-05-02T14:37:34.215Z,1.17
2023-05-02T14:42:35.896Z,1.30
2023-05-02T14:47:37.439Z,1.20
2023-05-02T14:52:39.042Z,1.20
2023-05-02T14:57:40.567Z,1.38
2023-05-02T15:02:42.356Z,1.60
2023-05-02T15:07:44.108Z,1.20
2023-05-02T15:12:46.893Z,1.27
2023-05-02T15:17:48.402Z,1.30
2023-05-02T15:22:49.838Z,1.10
2023-05-02T15:27:51.256Z,1.20
2023-05-02T15:32:53.103Z,1.45
2023-05-02T15:37:55.687Z,1.20
2023-05-02T15:42:57.113Z,1.23
2023-05-02T15:47:58.554Z,1.40
2023-05-02T15:53:00.065Z,1.20
2023-05-02T15:58:01.549Z,1.48
2023-05-02T16:03:04.048Z,1.23
2023-05-02T16:08:06.091Z,1.50
2023-05-02T16:13:07.541Z,1.17
2023-05-02T16:18:08.991Z,1.35
2023-05-02T16:23:10.580Z,1.30
2023-05-02T16:28:11.968Z,1.20
2023-05-02T16:33:13.785Z,1.10
2023-05-02T16:38:15.311Z,1.48
2023-05-02T16:43:17.025Z,1.40
2023-05-02T16:48:19.366Z,1.58
2023-05-02T16:53:21.016Z,1.30
2023-05-02T16:58:22.898Z,1.20
2023-05-02T17:03:24.325Z,1.00
2023-05-02T17:08:25.764Z,1.50
2023-05-02T17:13:27.256Z,1.42
2023-05-02T17:18:28.915Z,1.70
2023-05-02T17:23:30.570Z,1.65
2023-05-02T17:28:32.404Z,1.65
2023-05-02T17:33:33.926Z,1.60
2023-05-02T17:38:35.404Z,1.50
2023-05-02T17:43:38.055Z,1.80
2023-05-02T17:48:42.432Z,1.45
2023-05-02T17:53:43.924Z,1.23
2023-05-02T17:58:45.408Z,1.20
2023-05-02T18:03:48.171Z,1.40
2023-05-02T18:08:49.804Z,1.30
2023-05-02T18:13:51.435Z,2.00
2023-05-02T18:18:53.622Z,1.63
2023-05-02T18:23:56.916Z,1.60
2023-05-02T18:28:58.605Z,2.60
2023-05-02T18:34:00.127Z,1.77
2023-05-02T18:39:01.826Z,1.77
2023-05-02T18:44:07.020Z,1.30
2023-05-02T18:49:09.463Z,2.30
2023-05-02T18:54:10.939Z,2.05
2023-05-02T18:59:12.464Z,2.17
2023-05-02T19:04:13.876Z,2.60
2023-05-02T19:09:15.821Z,3.10
2023-05-02T19:14:17.261Z,1.88
2023-05-02T19:19:18.752Z,1.25
2023-05-02T19:24:21.218Z,1.15
2023-05-02T19:29:23.521Z,1.70
2023-05-02T19:34:24.945Z,1.63
2023-05-02T19:39:26.493Z,1.40
2023-05-02T19:44:27.900Z,1.35
2023-05-02T19:49:29.303Z,1.50
2023-05-02T19:54:31.093Z,1.50
2023-05-02T19:59:32.527Z,1.65
2023-05-02T20:04:33.926Z,2.00
2023-05-02T20:09:35.568Z,4.70
2023-05-02T20:14:36.942Z,7.47
2023-05-02T20:19:38.341Z,5.15
2023-05-02T20:24:39.782Z,3.40
2023-05-02T20:29:41.484Z,2.00
2023-05-02T20:34:42.925Z,1.88
2023-05-02T20:39:44.393Z,1.85
2023-05-02T20:44:47.570Z,1.70
2023-05-02T20:49:49.129Z,1.60
2023-05-02T20:54:53.325Z,1.40
2023-05-02T20:59:54.792Z,1.95
2023-05-02T21:04:56.359Z,1.60
2023-05-02T21:09:57.925Z,1.55
2023-05-02T21:14:59.352Z,1.40
2023-05-02T21:20:01.297Z,1.50
2023-05-02T21:25:03.354Z,1.48
2023-05-02T21:30:05.224Z,1.27
2023-05-02T21:35:07.022Z,1.40
2023-05-02T21:40:08.732Z,1.63
2023-05-02T21:45:11.302Z,1.30
2023-05-02T21:50:12.735Z,1.17
2023-05-02T21:55:14.234Z,1.30
2023-05-02T22:00:16.117Z,1.30
2023-05-02T22:05:17.592Z,1.50
2023-05-02T22:10:19.234Z,1.63
2023-05-02T22:15:20.899Z,1.45
2023-05-02T22:20:22.882Z,1.45
2023-05-02T22:25:24.385Z,1.35
2023-05-02T22:30:25.903Z,1.50
2023-05-02T22:35:27.620Z,1.52
2023-05-02T22:40:30.426Z,1.33
2023-05-02T22:45:31.860Z,1.55
2023-05-02T22:50:33.871Z,1.48
2023-05-02T22:55:36.879Z,1.52
2023-05-02T23:00:38.281Z,1.60
2023-05-02T23:05:39.779Z,1.30
2023-05-02T23:10:41.166Z,1.33
2023-05-02T23:15:43.470Z,1.40
2023-05-02T23:20:44.962Z,1.88
2023-05-02T23:25:46.474Z,1.25
2023-05-02T23:30:49.018Z,1.20
2023-05-02T23:35:50.526Z,1.65
2023-05-02T23:40:52.262Z,1.55
2023-05-02T23:45:53.736Z,2.00
2023-05-02T23:50:55.227Z,1.50
2023-05-02T23:55:57.580Z,1.50
